• Join FlightAware (Why Join?)
  • Login
  • US Flag 
08:25AM EDT


 

Airport Tracker/Info


-or-


 

Live Flight TrackerFlight Track Log ✈ UAL4202 ✈ 06-Apr-2013 ✈ KIAH - KCMH

Flight Track Log - Related Links

Times and Time Zones

All times are in EDT time to prevent confusion due to time zone crossing. See the UAL4202 flight status page for this flight to view local times or setup timezone preferences in your user account.

Time Position Orientation Groundspeed Altitude Reporting Facility
EDT Latitude Longitude Course Direction KTS MPH feet Rate Location/Type
03:01PM 29.9781 -95.2933 30° Northeast 154 177 800  Level Houston Center
03:02PM 30.0192 -95.2617 34° Northeast 233 268 2,100 1,740 Climbing Houston Center
03:03PM 30.0925 -95.2536 North 247 284 4,200 1,920 Climbing Houston Center
03:04PM 30.4400 -95.1460 27° Northeast  Level FlightAware Approximate
03:04PM 30.1675 -95.2439 North 262 302 6,100  Level Houston Center
03:05PM 30.5495 -95.0892 30° Northeast  Level FlightAware Approximate
03:05PM 30.2383 -95.2169 18° North 266 306 8,400  Level Houston Center
03:06PM 30.6527 -95.0149 30° Northeast  Level FlightAware Approximate
03:06PM 30.3142 -95.1872 19° North 280 322 9,900  Level Houston Center
03:07PM 30.3978 -95.1522 20° North 307 353 11,200 1,200 Climbing Houston Center
03:08PM 30.4844 -95.1161 20° North 321 369 12,400 1,260 Climbing Houston Center
03:09PM 30.5950 -95.0711 19° North 343 395 13,800 1,200 Climbing Houston Center
03:10PM 30.6842 -95.0156 28° Northeast 359 413 14,900 1,080 Climbing Houston Center
03:11PM 30.7756 -94.9594 28° Northeast 368 423 16,100 1,140 Climbing Houston Center
03:12PM 30.8681 -94.9011 28° Northeast 376 433 17,300 1,080 Climbing Houston Center
03:13PM 30.9617 -94.8428 28° Northeast 378 435 18,400 1,200 Climbing Houston Center
03:14PM 31.0153 -94.8103 27° Northeast 374 430 19,100 1,260 Climbing Fort Worth Center
03:15PM 31.1100 -94.7494 29° Northeast 380 437 20,300 1,140 Climbing Fort Worth Center
03:16PM 31.2047 -94.6858 30° Northeast 386 444 21,400 1,140 Climbing Fort Worth Center
03:17PM 31.3056 -94.6197 29° Northeast 392 451 22,600 1,140 Climbing Fort Worth Center
03:18PM 31.4022 -94.5536 30° Northeast 392 451 23,700 1,140 Climbing Fort Worth Center
03:19PM 31.4967 -94.4825 33° Northeast 392 451 24,900 1,140 Climbing Fort Worth Center
03:20PM 31.5825 -94.3992 40° Northeast 397 457 26,000 1,140 Climbing Fort Worth Center
03:21PM 31.6681 -94.3208 38° Northeast 397 457 27,200 1,200 Climbing Fort Worth Center
03:22PM 31.7517 -94.2397 40° Northeast 392 451 28,400 1,140 Climbing Fort Worth Center
03:23PM 31.8353 -94.1611 39° Northeast 387 445 29,500 1,140 Climbing Fort Worth Center
03:24PM 31.9169 -94.0850 38° Northeast 387 445 30,700 1,140 Climbing Fort Worth Center
03:25PM 31.9961 -94.0061 40° Northeast 382 440 31,800 1,020 Climbing Fort Worth Center
03:26PM 32.0797 -93.9294 38° Northeast 382 440 32,800 960 Climbing Fort Worth Center
03:27PM 32.1611 -93.8528 39° Northeast 382 440 33,800 900 Climbing Fort Worth Center
03:28PM 32.2319 -93.7761 42° Northeast 382 440 34,700 600 Climbing Fort Worth Center
03:29PM 32.3131 -93.6992 39° Northeast 372 428 35,000 120 Climbing Fort Worth Center
03:30PM 32.4003 -93.6169 39° Northeast 378 435 35,000  Level Fort Worth Center
03:31PM 32.4917 -93.5294 39° Northeast 393 452 35,000  Level Fort Worth Center
03:32PM 32.5847 -93.4367 40° Northeast 415 478 35,000  Level Fort Worth Center
03:33PM 32.6800 -93.3436 39° Northeast 435 501 35,000  Level Fort Worth Center
03:34PM 32.7811 -93.2450 39° Northeast 448 516 35,000  Level Fort Worth Center
03:35PM 32.8800 -93.1489 39° Northeast 454 522 35,000  Level Fort Worth Center
03:36PM 32.9750 -93.0578 39° Northeast 454 522 35,000  Level Fort Worth Center
03:37PM 33.0700 -92.9639 40° Northeast 449 517 35,000  Level Fort Worth Center
03:38PM 33.1647 -92.8700 40° Northeast 449 517 35,000 60 Level Fort Worth Center
03:39PM 33.3347 -92.7044 39° Northeast 464 534 35,200 420 Climbing Memphis Center
03:40PM 33.4261 -92.6097 41° Northeast 453 521 36,200 900 Climbing Memphis Center
03:41PM 33.5175 -92.5225 39° Northeast 433 498 37,000 360 Climbing Memphis Center
03:42PM 33.6044 -92.4347 40° Northeast 416 479 37,000  Level Memphis Center
03:43PM 33.7000 -92.3422 39° Northeast 416 479 37,000  Level Memphis Center
03:44PM 33.7933 -92.2494 40° Northeast 422 486 37,000  Level Memphis Center
03:45PM 33.8886 -92.1514 40° Northeast 434 499 37,000  Level Memphis Center
03:46PM 33.9903 -92.0508 39° Northeast 448 516 37,000  Level Memphis Center
03:47PM 34.0664 -91.9719 41° Northeast 454 522 37,000  Level Memphis Center
03:48PM 34.1742 -91.8561 42° Northeast 461 531 37,000  Level Memphis Center
03:49PM 34.2714 -91.7547 41° Northeast 466 536 37,000  Level Memphis Center
03:50PM 34.3769 -91.6531 38° Northeast 466 536 37,000  Level Memphis Center
03:51PM 34.4758 -91.5464 42° Northeast 466 536 37,000  Level Memphis Center
03:52PM 34.5792 -91.4444 39° Northeast 473 544 37,000  Level Memphis Center
03:53PM 34.6803 -91.3394 40° Northeast 479 551 37,000  Level Memphis Center
03:54PM 34.7811 -91.2344 41° Northeast 479 551 37,000  Level Memphis Center
03:55PM 34.8925 -91.1217 40° Northeast 474 545 37,000  Level Memphis Center
03:56PM 34.9889 -91.0161 42° Northeast 474 545 37,000  Level Memphis Center
03:57PM 35.0856 -90.9053 43° Northeast 474 545 37,000  Level Memphis Center
03:58PM 35.1714 -90.7839 49° Northeast 469 540 37,000  Level Memphis Center
03:59PM 35.2572 -90.6572 50° Northeast 475 547 37,000  Level Memphis Center
04:00PM 35.3431 -90.5353 49° Northeast 475 547 37,000  Level Memphis Center
04:01PM 35.4286 -90.4106 50° Northeast 475 547 37,000  Level Memphis Center
04:02PM 35.5039 -90.2983 50° Northeast 475 547 37,000  Level Memphis Center
04:03PM 35.5914 -90.1706 50° Northeast 479 551 37,000  Level Memphis Center
04:04PM 35.6744 -90.0453 51° Northeast 479 551 37,000  Level Memphis Center
04:05PM 35.7553 -89.9222 51° Northeast 474 545 37,000  Level Memphis Center
04:06PM 35.8403 -89.7936 51° Northeast 474 545 37,000  Level Memphis Center
04:07PM 35.9253 -89.6675 50° Northeast 474 545 37,000  Level Memphis Center
04:08PM 36.0100 -89.5411 50° Northeast 474 545 37,000  Level Memphis Center
04:09PM 36.0925 -89.4142 51° Northeast 479 551 37,000  Level Memphis Center
04:10PM 36.1769 -89.2847 51° Northeast 479 551 37,000  Level Memphis Center
04:11PM 36.2633 -89.1550 50° Northeast 479 551 37,000  Level Memphis Center
04:12PM 36.3494 -89.0275 50° Northeast 479 551 37,000  Level Memphis Center
04:13PM 36.4336 -88.9022 50° Northeast 479 551 37,000  Level Memphis Center
04:14PM 36.5194 -88.7742 50° Northeast 474 545 37,000  Level Memphis Center
04:15PM 36.6033 -88.6483 50° Northeast 474 545 37,000  Level Memphis Center
04:16PM 36.6869 -88.5172 51° Northeast 479 551 37,000  Level Memphis Center
04:17PM 36.7703 -88.3911 50° Northeast 479 551 37,000  Level Memphis Center
04:18PM 36.8536 -88.2594 52° Northeast 479 551 37,000  Level Memphis Center
04:19PM 36.9389 -88.1300 50° Northeast 479 551 37,000  Level Memphis Center
04:21PM 37.0917 -87.8831 52° Northeast 478 550 37,000 -60 Level Indianapolis Center
04:22PM 37.1758 -87.7492 52° Northeast 482 555 36,900 -600 Descending Indianapolis Center
04:23PM 37.2617 -87.6147 51° Northeast 487 560 35,800 -960 Descending Indianapolis Center
04:24PM 37.3464 -87.4792 52° Northeast 487 560 35,000 -420 Descending Indianapolis Center
04:25PM 37.4300 -87.3461 52° Northeast 481 554 35,000  Level Indianapolis Center
04:26PM 37.5131 -87.2122 52° Northeast 481 554 35,000  Level Indianapolis Center
04:27PM 37.6014 -87.0686 52° Northeast 481 554 35,000  Level Indianapolis Center
04:28PM 37.6842 -86.9353 52° Northeast 482 555 35,000  Level Indianapolis Center
04:29PM 37.7656 -86.8019 52° Northeast 482 555 35,000  Level Indianapolis Center
04:30PM 37.8489 -86.6694 51° Northeast 482 555 35,000  Level Indianapolis Center
04:31PM 37.9303 -86.5347 53° Northeast 484 557 35,000  Level Indianapolis Center
04:32PM 38.0128 -86.4003 52° Northeast 484 557 35,000 -720 Level Indianapolis Center
04:33PM 38.1094 -86.2378 53° Northeast 483 556 33,600 -1,440 Descending Indianapolis Center
04:34PM 38.1886 -86.1094 52° Northeast 469 540 32,100 -1,320 Descending Indianapolis Center
04:35PM 38.2639 -85.9831 53° Northeast 454 522 31,000 -540 Descending Indianapolis Center
04:36PM 38.3336 -85.8669 53° Northeast 423 487 31,000  Level Indianapolis Center
04:37PM 38.4047 -85.7486 52° Northeast 420 483 31,000  Level Indianapolis Center
04:39PM 38.4794 -85.6217 53° Northeast 445 512 31,000 -360 Level Indianapolis Center
04:40PM 38.5572 -85.4911 53° Northeast 458 527 30,300 -1,320 Descending Indianapolis Center
04:41PM 38.6506 -85.3322 53° Northeast 467 537 28,300 -1,860 Descending Indianapolis Center
04:42PM 38.7286 -85.1992 53° Northeast 465 535 26,600 -1,620 Descending Indianapolis Center
04:43PM 38.8058 -85.0675 53° Northeast 459 528 25,000 -1,320 Descending Indianapolis Center
04:44PM 38.8819 -84.9358 53° Northeast 458 527 24,000 -540 Descending Indianapolis Center
04:45PM 38.9639 -84.7956 53° Northeast 458 527 24,000  Level Indianapolis Center
04:46PM 39.0400 -84.6614 54° Northeast 461 531 24,000 -780 Level Indianapolis Center
04:47PM 39.1153 -84.5250 55° Northeast 463 533 22,500 -1,680 Descending Indianapolis Center
04:48PM 39.1864 -84.3936 55° Northeast 448 516 20,600 -1,740 Descending Indianapolis Center
04:49PM 39.2553 -84.2681 55° Northeast 427 491 19,000 -840 Descending Indianapolis Center
04:50PM 39.3183 -84.1367 58° Northeast 428 493 19,000 -300 Level Indianapolis Center
04:51PM 39.3711 -83.9975 64° Northeast 429 494 18,500 -1,140 Descending Indianapolis Center
04:52PM 39.4236 -83.8597 64° Northeast 425 489 16,700 -2,040 Descending Indianapolis Center
04:53PM 39.4744 -83.7261 64° Northeast 414 476 14,400 -2,400 Descending Indianapolis Center
04:54PM 39.5325 -83.5758 63° Northeast 400 460 11,900 -2,220 Descending Indianapolis Center
04:54PM 39.5564 -83.5089 65° Northeast 391 450 11,000 -900 Descending Indianapolis Center
04:55PM 39.5792 -83.4514 63° Northeast 390 449 11,000  Level Indianapolis Center
04:55PM 39.6042 -83.4008 57° Northeast 374 430 11,000  Level Indianapolis Center
04:56PM 39.6422 -83.3481 47° Northeast 372 428 11,000 -300 Level Indianapolis Center
04:56PM 39.6844 -83.3319 16° North 322 371 10,700 -1,020 Descending Indianapolis Center
04:57PM 39.7269 -83.3136 18° North 321 369 10,000 -1,500 Descending Indianapolis Center
04:57PM 39.7661 -83.3011 14° North 303 349 9,200 -1,560 Descending Indianapolis Center
04:58PM 39.8061 -83.2844 18° North 302 348 8,400 -1,620 Descending Indianapolis Center
04:59PM 39.8533 -83.2817 North 276 318 7,400 -1,560 Descending Indianapolis Center
04:59PM 39.8833 -83.2836 357° North 284 327 6,800 -1,800 Descending Indianapolis Center
04:59PM 39.9242 -83.2872 356° North 274 315 5,800 -1,920 Descending Indianapolis Center
05:00PM 39.9711 -83.2800 North 286 329 4,900 -1,500 Descending Indianapolis Center
05:00PM 39.9850 -83.2539 55° Northeast 271 312 4,300 -1,560 Descending Indianapolis Center
05:01PM 39.9972 -83.1944 75° East 265 305 3,300 -1,320 Descending Indianapolis Center
05:01PM 40.0019 -83.1633 79° East 250 288 3,000 -300 Descending Indianapolis Center
05:02PM 40.0075 -83.1083 82° East 249 287 3,000  Level Indianapolis Center
05:02PM 40.0056 -83.0819 95° East 206 237 3,000  Level Indianapolis Center